Time;durP1;ratioP1;P1;durP2;ratioP2;P2;SDS_P1;SDS_P2;PMS_P1;PMS_P2;Temp;Humidity;BMP_temperature;BMP_pressure;BME280_temperature;BME280_humidity;BME280_pressure;Samples;Min_cycle;Max_cycle;Signal;HPM_P1;HPM_P2
2022/12/02 00:01:25;;;;;;;;;;;;;;;7.63;53.53;99265.59;4487441;32;20327;-86
2022/12/02 00:03:51;;;;;;;;;;;;;;;7.72;53.46;99264.44;4473060;32;19999;-86
2022/12/02 00:06:35;;;;;;;;;;;;;;;7.69;53.63;99260.16;4487368;32;19972;-85
2022/12/02 00:09:14;;;;;;;;;;;;;;;7.71;53.77;99266.19;4487301;32;19976;-86
2022/12/02 00:11:39;;;;;;;;;;;;;;;7.77;53.78;99267.75;4459976;32;19980;-86
2022/12/02 00:14:06;;;;;;;;;;;;;;;7.82;53.49;99263.19;4487212;32;19972;-86
2022/12/02 00:16:31;;;;;;;;;;;;;;;7.85;53.13;99260.47;4472925;32;19988;-86
2022/12/02 00:18:56;;;;;;;;;;;;;;;7.81;53.00;99254.47;4487144;32;19990;-86
2022/12/02 00:21:22;;;;;;;;;;;;;;;7.82;52.67;99255.31;4487140;32;20017;-86
2022/12/02 00:23:47;;;;;;;;;;;;;;;7.87;52.43;99261.25;4487128;32;19995;-86
2022/12/02 00:26:12;;;;;;;;;;;;;;;7.81;52.47;99257.09;4487081;32;19992;-86
2022/12/02 00:28:37;;;;;;;;;;;;;;;7.80;52.49;99258.03;4472859;32;20336;-86
2022/12/02 00:31:03;;;;;;;;;;;;;;;7.88;52.50;99260.38;4487253;32;19978;-86
2022/12/02 00:33:28;;;;;;;;;;;;;;;7.86;52.49;99259.53;4486812;32;20038;-86
2022/12/02 00:35:53;;;;;;;;;;;;;;;7.82;52.68;99261.44;4487143;32;19971;-86
2022/12/02 00:38:19;;;;;;;;;;;;;;;7.58;53.27;99259.66;4487045;32;20282;-85
2022/12/02 00:40:44;;;;;;;;;;;;;;;7.64;53.12;99255.06;4486776;32;20232;-84
2022/12/02 00:48:37;;;;;;;;;;;;;;;7.60;53.25;99255.22;4487011;32;20013;-84
2022/12/02 00:51:02;;;;;;;;;;;;;;;7.56;53.27;99249.22;4472480;32;19971;-85
2022/12/02 00:53:28;;;;;;;;;;;;;;;7.54;53.19;99253.69;4472368;32;20026;-85
2022/12/02 00:55:53;;;;;;;;;;;;;;;7.48;53.23;99249.50;4486783;32;19975;-85
2022/12/02 00:58:18;;;;;;;;;;;;;;;7.47;53.18;99254.78;4486715;32;20026;-85
2022/12/02 01:00:43;;;;;;;;;;;;;;;7.44;53.13;99247.03;4486702;32;20296;-86
2022/12/02 01:03:09;;;;;;;;;;;;;;;7.41;53.10;99242.75;4487919;32;19988;-86
2022/12/02 01:05:34;;;;;;;;;;;;;;;7.36;53.29;99243.81;4474428;32;20320;-86
2022/12/02 01:07:59;;;;;;;;;;;;;;;7.31;53.42;99240.50;4488559;32;20020;-86
2022/12/02 01:10:24;;;;;;;;;;;;;;;7.28;53.54;99246.69;4488566;32;19983;-86
2022/12/02 01:12:50;;;;;;;;;;;;;;;7.27;53.75;99239.75;4488460;32;19987;-86
2022/12/02 01:15:15;;;;;;;;;;;;;;;7.27;53.92;99248.47;4488542;32;20429;-86
2022/12/02 01:17:40;;;;;;;;;;;;;;;7.18;54.00;99246.13;4488669;32;20016;-86
2022/12/02 01:20:06;;;;;;;;;;;;;;;7.17;53.94;99244.44;4488484;32;19979;-86
2022/12/02 01:22:31;;;;;;;;;;;;;;;7.20;53.84;99252.19;4488314;32;19991;-85
2022/12/02 01:24:56;;;;;;;;;;;;;;;7.16;53.86;99242.72;4488568;32;19971;-85
2022/12/02 01:27:22;;;;;;;;;;;;;;;7.17;53.80;99239.22;4488243;32;19971;-85
2022/12/02 01:29:48;;;;;;;;;;;;;;;7.16;53.94;99240.09;4474187;32;19976;-85
2022/12/02 01:32:13;;;;;;;;;;;;;;;7.20;53.79;99236.47;4488290;32;19976;-85
2022/12/02 01:34:40;;;;;;;;;;;;;;;7.25;53.71;99239.78;4473986;32;20015;-86
2022/12/02 01:37:05;;;;;;;;;;;;;;;7.28;53.73;99239.72;4461281;32;20027;-86
2022/12/02 01:39:30;;;;;;;;;;;;;;;7.31;53.61;99228.25;4473819;32;20316;-85
2022/12/02 01:41:56;;;;;;;;;;;;;;;7.33;53.56;99231.69;4474197;32;19979;-86
2022/12/02 01:44:21;;;;;;;;;;;;;;;7.36;53.57;99228.09;4488300;32;19976;-86
2022/12/02 01:46:46;;;;;;;;;;;;;;;7.38;53.50;99224.53;4474059;32;20244;-86
2022/12/02 01:49:11;;;;;;;;;;;;;;;7.41;53.44;99224.41;4473985;32;19990;-87
2022/12/02 01:51:37;;;;;;;;;;;;;;;7.41;53.52;99226.16;4473903;32;20024;-87
2022/12/02 01:54:02;;;;;;;;;;;;;;;7.45;53.56;99230.41;4473916;32;20000;-87
2022/12/02 01:56:27;;;;;;;;;;;;;;;7.45;53.63;99226.00;4488211;32;19976;-87
2022/12/02 01:58:52;;;;;;;;;;;;;;;7.46;53.63;99221.63;4488214;32;19968;-87
2022/12/02 02:01:25;;;;;;;;;;;;;;;7.46;53.49;99224.25;4473886;32;20065;-87
2022/12/02 02:03:50;;;;;;;;;;;;;;;7.48;53.32;99225.06;4474047;32;19987;-87
2022/12/02 02:06:15;;;;;;;;;;;;;;;7.48;53.37;99225.91;4488111;32;20327;-87
2022/12/02 02:08:41;;;;;;;;;;;;;;;7.49;53.38;99221.50;4488093;32;19967;-87
2022/12/02 02:11:06;;;;;;;;;;;;;;;7.53;53.22;99217.00;4488137;32;20003;-87
2022/12/02 02:13:31;;;;;;;;;;;;;;;7.51;53.23;99214.44;4472986;32;20024;-87
2022/12/02 02:15:56;;;;;;;;;;;;;;;7.56;53.03;99223.00;4473517;32;20213;-87
2022/12/02 02:18:22;;;;;;;;;;;;;;;7.54;53.24;99218.75;4488108;32;20232;-87
2022/12/02 02:20:47;;;;;;;;;;;;;;;7.56;53.29;99232.66;4488042;32;19968;-87
2022/12/02 02:23:19;;;;;;;;;;;;;;;7.57;53.23;99219.50;4473963;32;19988;-87
2022/12/02 02:25:45;;;;;;;;;;;;;;;7.60;53.11;99218.53;4488124;32;20003;-87
2022/12/02 02:28:10;;;;;;;;;;;;;;;7.59;53.12;99222.91;4473858;32;19964;-87
2022/12/02 02:30:36;;;;;;;;;;;;;;;7.59;53.39;99222.91;4473631;32;19983;-87
2022/12/02 02:33:01;;;;;;;;;;;;;;;7.61;53.37;99221.09;4487921;32;20272;-87
2022/12/02 02:35:27;;;;;;;;;;;;;;;7.60;53.34;99224.63;4473662;32;19972;-87
2022/12/02 02:37:52;;;;;;;;;;;;;;;7.63;53.20;99226.25;4473585;32;19968;-87
2022/12/02 02:40:18;;;;;;;;;;;;;;;7.59;53.18;99228.16;4487753;32;19979;-87
2022/12/02 02:42:44;;;;;;;;;;;;;;;7.61;53.06;99225.47;4487811;32;19972;-87
2022/12/02 02:45:09;;;;;;;;;;;;;;;7.58;53.06;99233.44;4473781;32;20467;-88
2022/12/02 02:47:34;;;;;;;;;;;;;;;7.59;52.81;99230.78;4487929;32;20008;-88
2022/12/02 02:49:59;;;;;;;;;;;;;;;7.58;52.43;99225.59;4487846;32;19988;-88
2022/12/02 02:52:25;;;;;;;;;;;;;;;7.55;52.17;99221.31;4487892;32;19967;-88
2022/12/02 02:54:50;;;;;;;;;;;;;;;7.54;51.98;99216.97;4487855;32;20021;-88
2022/12/02 02:57:15;;;;;;;;;;;;;;;7.51;51.78;99224.09;4473608;32;19987;-87
2022/12/02 02:59:41;;;;;;;;;;;;;;;7.53;51.49;99220.50;4487804;32;20320;-84
2022/12/02 03:02:07;;;;;;;;;;;;;;;7.48;51.67;99218.03;4460465;32;19994;-84
2022/12/02 03:04:32;;;;;;;;;;;;;;;7.48;51.70;99214.56;4473663;32;20039;-85
2022/12/02 03:06:57;;;;;;;;;;;;;;;7.50;51.57;99218.00;4473496;32;20017;-85
2022/12/02 03:09:23;;;;;;;;;;;;;;;7.51;51.72;99216.22;4487669;32;19980;-85
2022/12/02 03:11:48;;;;;;;;;;;;;;;7.50;51.81;99206.66;4473574;32;20465;-87
2022/12/02 03:14:13;;;;;;;;;;;;;;;7.53;51.74;99217.00;4473327;32;19972;-87
2022/12/02 03:16:39;;;;;;;;;;;;;;;7.52;51.48;99215.31;4473396;32;20007;-87
2022/12/02 03:19:04;;;;;;;;;;;;;;;7.49;51.63;99213.66;4473471;32;20039;-88
2022/12/02 03:21:31;;;;;;;;;;;;;;;7.50;51.61;99220.62;4487656;32;20248;-85
2022/12/02 03:23:57;;;;;;;;;;;;;;;7.44;51.53;99215.59;4473784;32;19972;-85
2022/12/02 03:26:22;;;;;;;;;;;;;;;7.45;51.42;99220.75;4487123;32;19986;-87
2022/12/02 03:28:47;;;;;;;;;;;;;;;7.47;51.44;99218.09;4487551;32;19972;-87
2022/12/02 03:31:13;;;;;;;;;;;;;;;7.29;51.57;99215.19;4473352;32;20029;-85
2022/12/02 03:33:38;;;;;;;;;;;;;;;7.24;51.66;99216.25;4473280;32;20304;-85
2022/12/02 03:36:03;;;;;;;;;;;;;;;7.29;51.78;99209.09;4473278;32;20379;-85
2022/12/02 03:38:30;;;;;;;;;;;;;;;7.28;52.24;99213.50;4473313;32;20023;-85
2022/12/02 03:40:55;;;;;;;;;;;;;;;6.96;53.60;99213.72;4473181;32;20024;-85
2022/12/02 03:43:20;;;;;;;;;;;;;;;7.20;53.21;99212.03;4487561;32;19976;-85
2022/12/02 03:45:45;;;;;;;;;;;;;;;7.21;53.21;99219.84;4487485;32;19968;-85
2022/12/02 03:48:11;;;;;;;;;;;;;;;7.18;53.38;99219.09;4487330;32;20445;-85
2022/12/02 03:50:36;;;;;;;;;;;;;;;7.21;53.15;99206.75;4487561;32;20274;-86
2022/12/02 03:53:01;;;;;;;;;;;;;;;7.25;53.18;99200.50;4473121;32;19984;-86
2022/12/02 03:55:26;;;;;;;;;;;;;;;7.25;53.34;99207.50;4473143;32;19960;-86
2022/12/02 03:57:52;;;;;;;;;;;;;;;7.27;53.41;99208.31;4487523;32;20013;-86
2022/12/02 04:00:17;;;;;;;;;;;;;;;7.30;53.30;99205.56;4487399;32;19990;-86
2022/12/02 04:02:43;;;;;;;;;;;;;;;7.28;53.27;99210.00;4487512;32;19985;-86
2022/12/02 04:05:08;;;;;;;;;;;;;;;7.28;53.38;99208.25;4487378;32;20013;-86
2022/12/02 04:07:33;;;;;;;;;;;;;;;7.31;53.13;99211.69;4487337;32;20376;-86
2022/12/02 04:09:58;;;;;;;;;;;;;;;7.32;52.95;99208.13;4487450;32;19999;-86
2022/12/02 04:12:24;;;;;;;;;;;;;;;7.32;52.84;99210.75;4487163;32;19990;-86
2022/12/02 04:14:49;;;;;;;;;;;;;;;7.31;52.82;99214.31;4473331;32;19996;-86
2022/12/02 04:17:14;;;;;;;;;;;;;;;7.29;52.78;99207.34;4487494;32;19980;-86
2022/12/02 04:19:39;;;;;;;;;;;;;;;7.26;52.46;99212.69;4487416;32;20306;-86
2022/12/02 04:22:04;;;;;;;;;;;;;;;7.26;52.01;99211.81;4473309;32;19993;-86
2022/12/02 04:24:30;;;;;;;;;;;;;;;7.24;51.80;99216.25;4487329;32;20079;-86
2022/12/02 04:26:55;;;;;;;;;;;;;;;7.27;51.55;99217.00;4487468;32;19979;-88
2022/12/02 04:29:20;;;;;;;;;;;;;;;7.25;51.39;99220.59;4472998;32;19983;-88
2022/12/02 04:31:45;;;;;;;;;;;;;;;7.21;51.58;99219.84;4487207;32;19972;-88
2022/12/02 04:34:11;;;;;;;;;;;;;;;7.23;51.58;99212.78;4487098;32;19972;-87
2022/12/02 04:36:36;;;;;;;;;;;;;;;7.21;51.68;99213.75;4486180;32;19976;-87
2022/12/02 04:39:01;;;;;;;;;;;;;;;7.22;51.47;99216.34;4487029;32;20028;-87
2022/12/02 04:41:28;;;;;;;;;;;;;;;7.18;51.21;99213.84;4472820;32;19976;-88
2022/12/02 04:43:53;;;;;;;;;;;;;;;7.20;50.92;99223.37;4472986;32;19986;-87
2022/12/02 04:46:18;;;;;;;;;;;;;;;7.20;51.00;99218.13;4487094;32;20316;-87
2022/12/02 04:48:44;;;;;;;;;;;;;;;7.18;51.01;99216.47;4487286;32;20040;-87
2022/12/02 04:51:09;;;;;;;;;;;;;;;7.19;50.54;99221.66;4487082;32;20376;-86
2022/12/02 04:53:34;;;;;;;;;;;;;;;7.17;50.25;99207.75;4487035;32;20024;-86
2022/12/02 04:55:59;;;;;;;;;;;;;;;7.15;50.19;99217.44;4472828;32;20315;-86
2022/12/02 04:58:24;;;;;;;;;;;;;;;7.15;50.31;99216.59;4486948;32;20255;-85
2022/12/02 05:00:50;;;;;;;;;;;;;;;7.15;50.42;99216.59;4487084;32;19972;-86
2022/12/02 05:03:15;;;;;;;;;;;;;;;7.14;50.51;99220.97;4486914;32;19984;-87
2022/12/02 05:05:40;;;;;;;;;;;;;;;7.13;50.47;99216.63;4486877;32;19972;-86
2022/12/02 05:08:05;;;;;;;;;;;;;;;7.15;50.46;99216.59;4486844;32;19976;-86
2022/12/02 05:10:31;;;;;;;;;;;;;;;7.18;50.35;99216.47;4486869;32;20241;-85
2022/12/02 05:12:56;;;;;;;;;;;;;;;7.18;50.47;99219.94;4486700;32;19964;-84
2022/12/02 05:15:21;;;;;;;;;;;;;;;7.22;50.65;99223.31;4472399;32;19988;-84
2022/12/02 05:17:46;;;;;;;;;;;;;;;7.24;50.71;99219.75;4486730;32;19998;-84
2022/12/02 05:20:12;;;;;;;;;;;;;;;7.27;50.90;99224.88;4472505;32;19979;-85
2022/12/02 05:22:37;;;;;;;;;;;;;;;7.19;50.72;99228.69;4486588;32;19964;-85
2022/12/02 05:25:03;;;;;;;;;;;;;;;7.20;50.72;99225.13;4486609;32;20026;-85
2022/12/02 05:27:28;;;;;;;;;;;;;;;7.21;50.75;99224.25;4472344;32;20012;-84
2022/12/02 05:29:53;;;;;;;;;;;;;;;7.25;50.65;99228.47;4486512;32;19989;-85
2022/12/02 05:32:18;;;;;;;;;;;;;;;7.27;50.49;99221.41;4483856;32;80095;-85
2022/12/02 05:34:43;;;;;;;;;;;;;;;7.28;50.28;99220.47;4486384;32;19984;-85
2022/12/02 05:37:09;;;;;;;;;;;;;;;7.27;50.19;99224.03;4486216;32;20388;-85
2022/12/02 05:39:34;;;;;;;;;;;;;;;7.24;50.11;99225.00;4486244;32;20304;-85
2022/12/02 05:42:01;;;;;;;;;;;;;;;7.25;50.02;99229.31;4486455;32;19967;-84
2022/12/02 05:44:26;;;;;;;;;;;;;;;7.24;49.91;99229.38;4486304;32;19980;-84
2022/12/02 05:46:51;;;;;;;;;;;;;;;7.21;49.92;99225.09;4486302;32;20243;-85
2022/12/02 05:49:18;;;;;;;;;;;;;;;7.18;49.94;99229.56;4473447;32;19987;-84
2022/12/02 05:51:43;;;;;;;;;;;;;;;7.15;49.97;99225.31;4474336;32;19975;-85
2022/12/02 05:54:10;;;;;;;;;;;;;;;7.06;50.17;99221.22;4488402;32;20355;-84
2022/12/02 05:56:35;;;;;;;;;;;;;;;7.12;50.20;99227.16;4488569;32;20323;-84
2022/12/02 05:59:03;;;;;;;;;;;;;;;7.15;50.32;99230.53;4474281;32;19968;-84
2022/12/02 06:01:33;;;;;;;;;;;;;;;7.15;50.72;99227.06;4474063;32;19959;-84
2022/12/02 06:03:58;;;;;;;;;;;;;;;7.13;50.53;99227.12;4488396;32;19980;-86
2022/12/02 06:06:30;;;;;;;;;;;;;;;7.16;50.39;99231.37;4488471;32;19989;-86
2022/12/02 06:08:55;;;;;;;;;;;;;;;7.15;50.72;99238.41;4488489;32;19994;-86
2022/12/02 06:11:27;;;;;;;;;;;;;;;7.18;50.19;99233.03;4474212;32;19979;-86
2022/12/02 06:13:53;;;;;;;;;;;;;;;7.17;50.18;99243.59;4488031;32;20376;-86
2022/12/02 06:16:23;;;;;;;;;;;;;;;7.17;50.16;99236.59;4473764;32;19975;-86
2022/12/02 06:18:48;;;;;;;;;;;;;;;7.17;50.02;99238.34;4488019;32;20063;-85
2022/12/02 06:21:15;;;;;;;;;;;;;;;7.22;49.90;99239.91;4488085;32;19968;-85
2022/12/02 06:23:43;;;;;;;;;;;;;;;7.22;50.02;99245.16;4487943;32;20328;-85
2022/12/02 06:26:08;;;;;;;;;;;;;;;7.21;49.90;99240.81;4488129;32;20594;-84
2022/12/02 06:28:34;;;;;;;;;;;;;;;7.22;49.84;99244.28;4473575;32;19996;-84
2022/12/02 06:31:15;;;;;;;;;;;;;;;7.24;49.83;99239.84;4473723;32;20086;-84
2022/12/02 06:33:41;;;;;;;;;;;;;;;7.25;49.81;99250.28;4460645;32;20327;-86
2022/12/02 06:36:10;;;;;;;;;;;;;;;7.27;49.75;99252.84;4473752;32;19983;-86
2022/12/02 06:38:36;;;;;;;;;;;;;;;7.28;49.77;99249.31;4473728;32;19976;-86
2022/12/02 06:41:09;;;;;;;;;;;;;;;7.29;49.77;99253.66;4473567;32;20012;-86
2022/12/02 06:43:35;;;;;;;;;;;;;;;7.33;49.63;99257.03;4488090;32;20402;-86
2022/12/02 06:46:00;;;;;;;;;;;;;;;7.32;49.75;99252.69;4488028;32;19988;-84
2022/12/02 06:48:26;;;;;;;;;;;;;;;7.36;49.88;99262.16;4473603;32;20053;-85
2022/12/02 06:50:52;;;;;;;;;;;;;;;7.32;49.58;99264.06;4473739;32;20021;-85
2022/12/02 06:53:24;;;;;;;;;;;;;;;7.35;49.99;99261.31;4460351;32;20315;-84
2022/12/02 06:56:16;;;;;;;;;;;;;;;7.16;50.03;99258.44;4474075;32;20036;-85
2022/12/02 06:58:45;;;;;;;;;;;;;;;7.29;49.61;99256.28;4483846;32;20402;-83
2022/12/02 07:01:30;;;;;;;;;;;;;;;7.27;49.57;99253.69;4487047;32;20308;-83
2022/12/02 07:04:07;;;;;;;;;;;;;;;7.32;49.50;99256.19;4473621;32;20389;-83
2022/12/02 07:06:33;;;;;;;;;;;;;;;6.47;51.23;99263.22;4487850;32;20350;-83
2022/12/02 07:08:59;;;;;;;;;;;;;;;7.15;49.93;99261.97;4473565;32;19968;-84
2022/12/02 07:11:50;;;;;;;;;;;;;;;7.15;49.75;99261.13;4473541;32;20347;-85
2022/12/02 07:14:32;;;;;;;;;;;;;;;7.26;49.58;99265.09;4475092;32;19984;-85
2022/12/02 07:16:59;;;;;;;;;;;;;;;6.81;50.16;99260.44;4473410;32;19992;-84
2022/12/02 07:19:35;;;;;;;;;;;;;;;7.19;49.33;99265.38;4473587;32;20039;-86
2022/12/02 07:22:00;;;;;;;;;;;;;;;7.29;49.24;99264.13;4487551;32;19976;-89
2022/12/02 07:24:25;;;;;;;;;;;;;;;7.07;49.56;99272.72;4487697;32;19972;-86
2022/12/02 07:26:50;;;;;;;;;;;;;;;7.28;49.21;99273.78;4473291;32;19983;-87
2022/12/02 07:29:19;;;;;;;;;;;;;;;7.22;49.08;99275.72;4460249;32;19999;-86
2022/12/02 07:31:45;;;;;;;;;;;;;;;7.24;49.26;99276.53;4487584;32;20263;-82
2022/12/02 07:34:13;;;;;;;;;;;;;;;7.33;49.48;99272.75;4487486;32;19976;-87
2022/12/02 07:36:38;;;;;;;;;;;;;;;7.43;49.64;99282.88;4487791;32;20279;-95
2022/12/02 07:39:04;;;;;;;;;;;;;;;7.51;48.92;99279.97;4490137;32;19972;-85
2022/12/02 07:41:30;;;;;;;;;;;;;;;7.51;48.66;99274.75;4473145;32;20096;-84
2022/12/02 07:43:55;;;;;;;;;;;;;;;7.59;48.18;99269.22;4491313;31;20261;-84
2022/12/02 07:46:20;;;;;;;;;;;;;;;7.54;48.03;99279.91;4495536;31;20011;-83
2022/12/02 07:48:45;;;;;;;;;;;;;;;7.64;48.15;99281.28;4494045;31;20353;-84
2022/12/02 07:51:11;;;;;;;;;;;;;;;7.60;47.94;99276.19;4495174;31;19988;-83
2022/12/02 07:53:36;;;;;;;;;;;;;;;7.68;48.10;99277.63;4494891;31;19986;-83
2022/12/02 07:56:01;;;;;;;;;;;;;;;7.75;48.38;99282.69;4487563;31;20024;-85
2022/12/02 07:58:26;;;;;;;;;;;;;;;7.89;48.15;99277.81;4485535;32;19982;-83
2022/12/02 08:00:52;;;;;;;;;;;;;;;7.98;47.80;99279.25;4472402;32;20005;-83
2022/12/02 08:03:17;;;;;;;;;;;;;;;8.05;47.63;99280.72;4472029;32;20252;-84
2022/12/02 08:05:42;;;;;;;;;;;;;;;7.85;47.83;99276.19;4472349;32;20002;-83
2022/12/02 08:08:07;;;;;;;;;;;;;;;7.95;47.58;99279.34;4486989;32;19980;-83
2022/12/02 08:10:32;;;;;;;;;;;;;;;7.82;47.72;99278.91;4487004;32;20326;-83
2022/12/02 08:12:58;;;;;;;;;;;;;;;7.99;47.69;99275.69;4487018;32;20214;-83
2022/12/02 08:15:23;;;;;;;;;;;;;;;8.10;47.37;99280.56;4473374;32;19987;-83
2022/12/02 08:17:48;;;;;;;;;;;;;;;8.16;47.31;99280.34;4487365;32;19990;-83
2022/12/02 08:20:13;;;;;;;;;;;;;;;8.24;47.20;99273.88;4487401;32;20019;-83
2022/12/02 08:22:39;;;;;;;;;;;;;;;8.33;46.65;99279.72;4487414;32;20043;-83
2022/12/02 08:25:04;;;;;;;;;;;;;;;8.34;46.58;99281.41;4473038;32;20048;-84
2022/12/02 08:27:29;;;;;;;;;;;;;;;8.38;46.26;99281.25;4487419;32;20295;-83
2022/12/02 08:29:55;;;;;;;;;;;;;;;8.37;46.03;99281.31;4487397;32;19976;-84
2022/12/02 08:32:20;;;;;;;;;;;;;;;8.43;46.33;99284.59;4473054;32;20031;-83
2022/12/02 08:34:45;;;;;;;;;;;;;;;8.49;46.21;99282.66;4487296;32;19998;-84
2022/12/02 08:37:11;;;;;;;;;;;;;;;8.55;46.25;99282.41;4487289;32;20282;-83
2022/12/02 08:39:36;;;;;;;;;;;;;;;8.62;46.32;99282.13;4472924;32;19971;-83
2022/12/02 08:42:02;;;;;;;;;;;;;;;8.74;45.89;99279.94;4473105;32;20338;-83
2022/12/02 08:44:27;;;;;;;;;;;;;;;8.68;46.10;99281.03;4473011;32;20002;-83
2022/12/02 08:46:52;;;;;;;;;;;;;;;8.56;46.02;99286.75;4487285;32;20004;-83
2022/12/02 08:49:18;;;;;;;;;;;;;;;8.56;46.35;99287.59;4472852;32;20014;-83
2022/12/02 08:51:43;;;;;;;;;;;;;;;8.70;45.65;99287.06;4472953;32;20240;-83
2022/12/02 08:54:08;;;;;;;;;;;;;;;8.79;45.33;99284.09;4487113;32;19988;-83
2022/12/02 08:56:34;;;;;;;;;;;;;;;8.59;45.65;99291.87;4472725;32;20288;-83
2022/12/02 08:58:59;;;;;;;;;;;;;;;8.44;46.21;99293.31;4472531;32;20003;-83
2022/12/02 09:01:24;;;;;;;;;;;;;;;8.52;46.25;99295.66;4472684;32;20003;-83
2022/12/02 09:03:49;;;;;;;;;;;;;;;8.55;46.17;99292.91;4486903;32;19979;-83
2022/12/02 09:06:15;;;;;;;;;;;;;;;8.59;46.15;99282.22;4472529;32;19988;-84
2022/12/02 09:08:40;;;;;;;;;;;;;;;8.58;46.21;99291.03;4472348;32;19972;-84
2022/12/02 09:11:05;;;;;;;;;;;;;;;8.63;45.87;99283.84;4472468;32;19983;-83
2022/12/02 09:13:30;;;;;;;;;;;;;;;8.60;45.55;99290.97;4486885;32;20006;-83
2022/12/02 09:15:56;;;;;;;;;;;;;;;8.60;45.58;99286.56;4486771;32;19993;-83
2022/12/02 09:18:21;;;;;;;;;;;;;;;8.66;45.70;99277.59;4486789;32;19968;-83
2022/12/02 09:20:47;;;;;;;;;;;;;;;8.72;45.87;99285.25;4486753;32;19976;-83
2022/12/02 09:23:12;;;;;;;;;;;;;;;8.35;46.06;99288.41;4487259;32;19998;-83
2022/12/02 09:25:37;;;;;;;;;;;;;;;8.47;46.08;99287.94;4474518;32;20229;-83
2022/12/02 09:28:03;;;;;;;;;;;;;;;8.46;46.24;99287.09;4488760;32;20333;-83
2022/12/02 09:30:28;;;;;;;;;;;;;;;8.49;46.06;99283.50;4488827;32;19991;-83
2022/12/02 09:32:53;;;;;;;;;;;;;;;8.57;46.33;99285.84;4488640;32;20270;-83
2022/12/02 09:35:18;;;;;;;;;;;;;;;8.63;46.20;99286.47;4488649;32;19972;-83
2022/12/02 09:37:44;;;;;;;;;;;;;;;8.20;46.48;99293.28;4488675;32;19972;-83
2022/12/02 09:40:09;;;;;;;;;;;;;;;8.60;46.14;99289.19;4488420;32;20291;-83
2022/12/02 09:42:34;;;;;;;;;;;;;;;8.53;46.33;99292.13;4488876;32;20110;-83
2022/12/02 09:45:00;;;;;;;;;;;;;;;8.19;46.85;99298.56;4488580;32;19972;-83
2022/12/02 09:47:25;;;;;;;;;;;;;;;8.56;46.15;99294.63;4474068;32;19971;-83
2022/12/02 09:49:50;;;;;;;;;;;;;;;8.65;46.04;99284.63;4488318;32;19988;-83
2022/12/02 09:52:17;;;;;;;;;;;;;;;8.74;45.96;99286.03;4474016;32;20372;-84
2022/12/02 09:54:42;;;;;;;;;;;;;;;8.82;45.59;99275.22;4488391;32;19964;-83
2022/12/02 09:57:09;;;;;;;;;;;;;;;8.93;45.50;99275.66;4474061;32;20316;-83
2022/12/02 09:59:34;;;;;;;;;;;;;;;9.02;45.39;99272.66;4474194;32;20040;-83
2022/12/02 10:01:59;;;;;;;;;;;;;;;9.05;45.17;99271.69;4488184;32;19988;-83
2022/12/02 10:04:25;;;;;;;;;;;;;;;9.09;45.05;99272.41;4488129;32;19976;-83
2022/12/02 10:06:50;;;;;;;;;;;;;;;9.14;44.77;99268.69;4488175;32;20308;-83
2022/12/02 10:09:16;;;;;;;;;;;;;;;9.12;44.75;99270.53;4473930;32;19996;-84
2022/12/02 10:11:42;;;;;;;;;;;;;;;9.08;45.34;99276.81;4488181;32;20002;-83
2022/12/02 10:14:10;;;;;;;;;;;;;;;9.14;45.30;99266.06;4487999;32;19972;-83
2022/12/02 10:16:36;;;;;;;;;;;;;;;9.03;45.50;99265.62;4488228;32;19983;-83
2022/12/02 10:19:02;;;;;;;;;;;;;;;9.15;45.33;99273.00;4460715;32;20315;-83
2022/12/02 10:21:28;;;;;;;;;;;;;;;9.01;45.22;99270.09;4473945;32;20003;-83
2022/12/02 10:23:53;;;;;;;;;;;;;;;9.13;45.43;99260.84;4488127;32;20314;-84
2022/12/02 10:26:18;;;;;;;;;;;;;;;9.13;45.42;99258.22;4487973;32;19968;-84
2022/12/02 10:28:45;;;;;;;;;;;;;;;9.14;45.68;99266.06;4473909;32;19988;-83
2022/12/02 10:31:11;;;;;;;;;;;;;;;9.19;45.90;99264.09;4473769;32;19992;-83
2022/12/02 10:34:00;;;;;;;;;;;;;;;9.25;46.22;99269.09;4473658;32;20031;-83
2022/12/02 10:36:31;;;;;;;;;;;;;;;9.32;46.23;99266.22;4478783;32;20008;-83
2022/12/02 10:39:04;;;;;;;;;;;;;;;9.37;46.10;99265.09;4474085;32;19983;-83
2022/12/02 10:41:29;;;;;;;;;;;;;;;8.69;47.34;99274.84;4460753;32;20257;-83
2022/12/02 10:43:57;;;;;;;;;;;;;;;9.10;46.74;99263.59;4488185;32;19987;-83
2022/12/02 10:46:23;;;;;;;;;;;;;;;9.11;47.32;99262.69;4488043;32;20036;-83
2022/12/02 10:48:48;;;;;;;;;;;;;;;9.17;47.85;99265.91;4487958;32;19976;-83
2022/12/02 10:51:14;;;;;;;;;;;;;;;8.37;48.89;99268.19;4487945;32;20005;-84
2022/12/02 10:53:39;;;;;;;;;;;;;;;8.62;49.43;99265.50;4487853;32;20055;-83
2022/12/02 10:56:05;;;;;;;;;;;;;;;8.80;49.12;99267.41;4460761;32;20044;-83
2022/12/02 10:58:30;;;;;;;;;;;;;;;8.87;48.80;99260.16;4473724;32;19980;-83
2022/12/02 11:00:56;;;;;;;;;;;;;;;8.96;48.99;99256.28;4473894;32;19992;-83
2022/12/02 11:03:22;;;;;;;;;;;;;;;9.00;49.19;99255.22;4460808;32;20322;-83
2022/12/02 11:05:47;;;;;;;;;;;;;;;9.04;49.35;99255.06;4488072;32;19990;-83
2022/12/02 11:08:18;;;;;;;;;;;;;;;9.11;48.96;99253.03;4488016;32;20020;-84
2022/12/02 11:10:44;;;;;;;;;;;;;;;9.19;49.03;99248.31;4488060;32;20689;-83
2022/12/02 11:13:12;;;;;;;;;;;;;;;9.23;48.90;99255.16;4487869;32;20307;-83
2022/12/02 11:15:39;;;;;;;;;;;;;;;9.29;48.86;99251.44;4487777;32;19993;-84
2022/12/02 11:18:06;;;;;;;;;;;;;;;9.38;49.26;99247.53;4473545;32;20295;-84
2022/12/02 11:20:32;;;;;;;;;;;;;;;9.34;48.92;99249.44;4473501;32;20485;-84
2022/12/02 11:22:58;;;;;;;;;;;;;;;9.43;48.22;99245.59;4473456;32;20023;-83
2022/12/02 11:25:41;;;;;;;;;;;;;;;9.44;47.83;99244.66;4487537;32;19972;-83
2022/12/02 11:28:25;;;;;;;;;;;;;;;9.50;48.02;99249.62;4487711;32;19980;-83
2022/12/02 11:31:13;;;;;;;;;;;;;;;9.34;48.23;99244.19;4487941;32;19995;-83
2022/12/02 11:33:47;;;;;;;;;;;;;;;9.35;48.77;99250.28;4473065;32;19975;-84
2022/12/02 11:36:14;;;;;;;;;;;;;;;9.43;48.98;99242.94;4487564;32;20028;-83
2022/12/02 11:38:51;;;;;;;;;;;;;;;9.47;48.74;99243.69;4473347;32;19994;-83
2022/12/02 11:41:17;;;;;;;;;;;;;;;9.48;48.89;99242.75;4487462;32;19987;-83
2022/12/02 11:43:43;;;;;;;;;;;;;;;9.28;48.81;99247.06;4473410;32;19983;-83
2022/12/02 11:46:08;;;;;;;;;;;;;;;9.36;48.15;99244.97;4472823;32;20326;-83
2022/12/02 11:48:34;;;;;;;;;;;;;;;9.29;47.85;99240.91;4487570;32;19991;-83
2022/12/02 11:50:59;;;;;;;;;;;;;;;9.34;48.68;99232.81;4473204;32;19979;-83
2022/12/02 11:53:24;;;;;;;;;;;;;;;9.34;49.00;99245.97;4473111;32;19978;-83
2022/12/02 11:55:50;;;;;;;;;;;;;;;9.29;48.22;99238.28;4487381;32;20007;-83
2022/12/02 11:58:18;;;;;;;;;;;;;;;9.30;48.77;99241.75;4487442;32;19972;-83
2022/12/02 12:01:00;;;;;;;;;;;;;;;9.41;48.16;99234.28;4487376;32;19979;-83
2022/12/02 12:03:25;;;;;;;;;;;;;;;9.31;48.20;99235.56;4473284;32;20475;-83
2022/12/02 12:06:10;;;;;;;;;;;;;;;9.47;48.60;99236.63;4473027;32;19976;-82
2022/12/02 12:08:41;;;;;;;;;;;;;;;9.20;48.32;99239.50;4460072;32;20576;-83
2022/12/02 12:11:19;;;;;;;;;;;;;;;9.37;48.22;99243.22;4473442;32;20044;-83
2022/12/02 12:13:56;;;;;;;;;;;;;;;9.18;48.66;99236.09;4487225;32;19972;-83
2022/12/02 12:16:22;;;;;;;;;;;;;;;9.32;48.15;99237.28;4487155;32;20012;-83
2022/12/02 12:18:48;;;;;;;;;;;;;;;9.37;48.03;99235.31;4473038;32;19983;-83
2022/12/02 12:21:14;;;;;;;;;;;;;;;9.38;48.71;99234.41;4473046;32;20229;-83
2022/12/02 12:23:40;;;;;;;;;;;;;;;9.31;49.34;99232.94;4472915;32;20304;-82
2022/12/02 12:26:06;;;;;;;;;;;;;;;8.94;49.50;99244.97;4472978;32;20283;-82
2022/12/02 12:28:33;;;;;;;;;;;;;;;8.98;49.37;99236.03;4487082;32;19986;-82
2022/12/02 12:30:59;;;;;;;;;;;;;;;8.94;49.47;99237.09;4472928;32;20129;-83
2022/12/02 12:33:24;;;;;;;;;;;;;;;8.81;49.77;99248.09;4472907;32;19982;-83
2022/12/02 12:35:50;;;;;;;;;;;;;;;9.00;50.75;99236.84;4472241;32;20031;-82
2022/12/02 12:38:16;;;;;;;;;;;;;;;9.07;50.04;99237.47;4472799;32;19990;-83
2022/12/02 12:40:41;;;;;;;;;;;;;;;9.09;50.18;99235.62;4486869;32;20265;-82
2022/12/02 12:43:06;;;;;;;;;;;;;;;9.11;50.18;99239.03;4487022;32;19980;-83
2022/12/02 12:45:31;;;;;;;;;;;;;;;9.13;50.03;99242.44;4486940;32;19979;-82
2022/12/02 12:47:57;;;;;;;;;;;;;;;8.67;51.00;99239.91;4472510;32;19995;-83
2022/12/02 12:50:22;;;;;;;;;;;;;;;8.11;52.07;99245.53;4472651;32;19979;-83
2022/12/02 12:52:47;;;;;;;;;;;;;;;8.42;50.95;99240.88;4486775;32;19983;-83
2022/12/02 12:55:12;;;;;;;;;;;;;;;8.62;50.81;99226.97;4486700;32;20322;-83
2022/12/02 12:57:38;;;;;;;;;;;;;;;8.47;50.82;99238.06;4485805;32;19986;-83
2022/12/02 13:00:03;;;;;;;;;;;;;;;8.30;51.26;99235.19;4486635;32;19990;-83